Time;durP1;ratioP1;P1;durP2;ratioP2;P2;SDS_P1;SDS_P2;PMS_P1;PMS_P2;Temp;Humidity;BMP_temperature;BMP_pressure;BME280_temperature;BME280_humidity;BME280_pressure;Samples;Min_cycle;Max_cycle;Signal;HPM_P1;HPM_P2
2022/07/13 00:00:26;;;;;;;;;;;;;;;;;;5025736;28;19917;-84
2022/07/13 00:02:51;;;;;;;;;;;;;;;;;;5027885;28;20301;-84
2022/07/13 00:05:17;;;;;;;;;;;;;;;;;;5022114;28;19914;-84
2022/07/13 00:07:42;;;;;;;;;;;;;;;;;;5028916;28;19913;-84
2022/07/13 00:10:07;;;;;;;;;;;;;;;;;;5027588;28;20363;-84
2022/07/13 00:12:32;;;;;;;;;;;;;;;;;;5023870;28;19917;-84
2022/07/13 00:14:57;;;;;;;;;;;;;;;;;;5025059;28;19967;-84
2022/07/13 00:17:22;;;;;;;;;;;;;;;;;;5008899;28;19913;-84
2022/07/13 00:19:48;;;;;;;;;;;;;;;;;;5025525;28;19987;-84
2022/07/13 00:22:13;;;;;;;;;;;;;;;;;;5027395;28;19921;-84
2022/07/13 00:24:38;;;;;;;;;;;;;;;;;;5030671;28;20187;-84
2022/07/13 00:27:04;;;;;;;;;;;;;;;;;;5029180;28;19952;-84
2022/07/13 00:29:29;;;;;;;;;;;;;;;;;;5029778;28;20390;-84
2022/07/13 00:31:54;;;;;;;;;;;;;;;;;;5028524;28;19925;-84
2022/07/13 00:34:19;;;;;;;;;;;;;;;;;;5029789;28;20028;-84
2022/07/13 00:36:44;;;;;;;;;;;;;;;;;;5030423;28;19917;-84
2022/07/13 00:39:09;;;;;;;;;;;;;;;;;;5027780;28;19921;-84
2022/07/13 00:41:35;;;;;;;;;;;;;;;;;;5026467;28;20374;-84
2022/07/13 00:44:00;;;;;;;;;;;;;;;;;;5028738;28;19917;-84
2022/07/13 00:46:25;;;;;;;;;;;;;;;;;;5026100;28;20253;-84
2022/07/13 00:48:51;;;;;;;;;;;;;;;;;;5028003;28;19960;-84
2022/07/13 00:51:16;;;;;;;;;;;;;;;;;;5030665;28;20007;-84
2022/07/13 00:53:41;;;;;;;;;;;;;;;;;;5010566;28;19959;-84
2022/07/13 00:56:06;;;;;;;;;;;;;;;;;;5028752;28;19932;-84
2022/07/13 00:58:31;;;;;;;;;;;;;;;;;;5029236;28;20011;-84
2022/07/13 01:00:56;;;;;;;;;;;;;;;;;;5029764;28;19913;-84
2022/07/13 01:03:22;;;;;;;;;;;;;;;;;;5010655;28;19913;-84
2022/07/13 01:05:47;;;;;;;;;;;;;;;;;;5029020;28;20444;-84
2022/07/13 01:08:12;;;;;;;;;;;;;;;;;;5028969;28;19999;-84
2022/07/13 01:10:38;;;;;;;;;;;;;;;;;;5011708;28;19913;-84
2022/07/13 01:13:03;;;;;;;;;;;;;;;;;;5023821;28;20012;-84
2022/07/13 01:15:28;;;;;;;;;;;;;;;;;;5026276;28;19921;-84
2022/07/13 01:17:54;;;;;;;;;;;;;;;;;;5029262;28;20422;-84
2022/07/13 01:20:19;;;;;;;;;;;;;;;;;;5027739;28;19920;-84
2022/07/13 01:22:44;;;;;;;;;;;;;;;;;;5027008;28;19960;-84
2022/07/13 01:25:09;;;;;;;;;;;;;;;;;;5026622;28;19913;-84
2022/07/13 01:27:34;;;;;;;;;;;;;;;;;;5029164;28;20432;-84
2022/07/13 01:30:00;;;;;;;;;;;;;;;;;;5027672;28;19913;-84
2022/07/13 01:32:25;;;;;;;;;;;;;;;;;;5028510;28;19949;-84
2022/07/13 01:34:50;;;;;;;;;;;;;;;;;;5028756;28;19921;-84
2022/07/13 01:37:15;;;;;;;;;;;;;;;;;;5030150;28;19917;-84
2022/07/13 01:39:40;;;;;;;;;;;;;;;;;;5009190;28;20032;-84
2022/07/13 01:42:05;;;;;;;;;;;;;;;;;;5024693;28;19970;-84
2022/07/13 01:44:31;;;;;;;;;;;;;;;;;;5028039;28;20015;-84
2022/07/13 01:46:56;;;;;;;;;;;;;;;;;;5018168;28;20039;-84
2022/07/13 01:49:21;;;;;;;;;;;;;;;;;;5028319;28;19913;-84
2022/07/13 01:51:46;;;;;;;;;;;;;;;;;;5027443;28;19913;-84
2022/07/13 01:54:11;;;;;;;;;;;;;;;;;;5025886;28;20004;-84
2022/07/13 01:56:36;;;;;;;;;;;;;;;;;;5027656;28;19921;-84
2022/07/13 01:59:02;;;;;;;;;;;;;;;;;;5025978;28;20444;-84
2022/07/13 02:01:27;;;;;;;;;;;;;;;;;;5005084;28;19913;-84
2022/07/13 02:03:52;;;;;;;;;;;;;;;;;;5029433;28;19927;-84
2022/07/13 02:06:18;;;;;;;;;;;;;;;;;;5025224;28;19959;-84
2022/07/13 02:08:43;;;;;;;;;;;;;;;;;;5025022;28;19948;-84
2022/07/13 02:11:08;;;;;;;;;;;;;;;;;;5022461;28;19957;-84
2022/07/13 02:13:33;;;;;;;;;;;;;;;;;;5026908;28;19929;-84
2022/07/13 02:15:58;;;;;;;;;;;;;;;;;;5027583;28;19924;-84
2022/07/13 02:18:24;;;;;;;;;;;;;;;;;;5025094;28;19917;-84
2022/07/13 02:20:49;;;;;;;;;;;;;;;;;;5028609;28;19918;-84
2022/07/13 02:23:15;;;;;;;;;;;;;;;;;;5026665;28;19917;-84
2022/07/13 02:25:40;;;;;;;;;;;;;;;;;;5026884;28;19920;-84
2022/07/13 02:28:06;;;;;;;;;;;;;;;;;;5023983;28;19971;-84
2022/07/13 02:30:31;;;;;;;;;;;;;;;;;;5023660;28;19996;-84
2022/07/13 02:32:56;;;;;;;;;;;;;;;;;;5027249;28;20409;-84
2022/07/13 02:35:22;;;;;;;;;;;;;;;;;;5026904;28;19921;-84
2022/07/13 02:37:47;;;;;;;;;;;;;;;;;;5025455;28;20434;-84
2022/07/13 02:40:12;;;;;;;;;;;;;;;;;;5022981;28;20169;-83
2022/07/13 02:42:37;;;;;;;;;;;;;;;;;;5011220;28;19921;-84
2022/07/13 02:45:02;;;;;;;;;;;;;;;;;;5025804;28;19917;-84
2022/07/13 02:47:27;;;;;;;;;;;;;;;;;;5025920;28;20117;-84
2022/07/13 02:49:53;;;;;;;;;;;;;;;;;;5026087;28;19913;-84
2022/07/13 02:52:18;;;;;;;;;;;;;;;;;;5019862;28;20081;-84
2022/07/13 02:54:43;;;;;;;;;;;;;;;;;;5026396;28;19917;-84
2022/07/13 02:57:08;;;;;;;;;;;;;;;;;;5026509;28;20315;-85
2022/07/13 02:59:33;;;;;;;;;;;;;;;;;;5007773;28;19924;-83
2022/07/13 03:01:59;;;;;;;;;;;;;;;;;;5024578;28;19917;-84
2022/07/13 03:04:24;;;;;;;;;;;;;;;;;;5023658;28;19996;-84
2022/07/13 03:06:49;;;;;;;;;;;;;;;;;;5025932;28;19921;-84
2022/07/13 03:09:14;;;;;;;;;;;;;;;;;;5022577;28;19956;-84
2022/07/13 03:11:39;;;;;;;;;;;;;;;;;;5025732;28;19928;-84
2022/07/13 03:14:04;;;;;;;;;;;;;;;;;;5020368;28;19921;-83
2022/07/13 03:16:30;;;;;;;;;;;;;;;;;;5022223;28;19923;-84
2022/07/13 03:18:55;;;;;;;;;;;;;;;;;;5022126;28;19928;-83
2022/07/13 03:21:20;;;;;;;;;;;;;;;;;;5023987;28;19928;-84
2022/07/13 03:23:45;;;;;;;;;;;;;;;;;;5023002;28;19917;-84
2022/07/13 03:26:10;;;;;;;;;;;;;;;;;;5022090;28;20263;-84
2022/07/13 03:28:35;;;;;;;;;;;;;;;;;;5023085;28;20044;-84
2022/07/13 03:31:01;;;;;;;;;;;;;;;;;;5024836;28;20561;-84
2022/07/13 03:33:26;;;;;;;;;;;;;;;;;;5022294;28;19924;-84
2022/07/13 03:35:51;;;;;;;;;;;;;;;;;;5023882;28;19967;-84
2022/07/13 03:38:17;;;;;;;;;;;;;;;;;;5020450;28;19922;-84
2022/07/13 03:40:42;;;;;;;;;;;;;;;;;;5025439;28;20055;-84
2022/07/13 03:43:07;;;;;;;;;;;;;;;;;;5025177;28;19917;-84
2022/07/13 03:45:32;;;;;;;;;;;;;;;;;;5021076;28;20064;-84
2022/07/13 03:47:57;;;;;;;;;;;;;;;;;;5026262;28;19917;-84
2022/07/13 03:50:23;;;;;;;;;;;;;;;;;;5026531;28;20031;-84
2022/07/13 03:52:48;;;;;;;;;;;;;;;;;;5005458;28;19936;-84
2022/07/13 03:55:14;;;;;;;;;;;;;;;;;;5020277;28;19917;-84
2022/07/13 03:57:39;;;;;;;;;;;;;;;;;;5027259;28;19920;-84
2022/07/13 04:00:04;;;;;;;;;;;;;;;;;;5025903;28;19917;-84
2022/07/13 04:02:30;;;;;;;;;;;;;;;;;;5025549;28;19917;-84
2022/07/13 04:04:55;;;;;;;;;;;;;;;;;;5023002;28;19957;-84
2022/07/13 04:07:20;;;;;;;;;;;;;;;;;;5007751;28;20051;-84
2022/07/13 04:09:46;;;;;;;;;;;;;;;;;;5025043;28;19948;-83
2022/07/13 04:12:11;;;;;;;;;;;;;;;;;;5025286;28;19913;-84
2022/07/13 04:14:36;;;;;;;;;;;;;;;;;;5018067;28;19924;-84
2022/07/13 04:17:02;;;;;;;;;;;;;;;;;;5025150;28;20412;-84
2022/07/13 04:19:27;;;;;;;;;;;;;;;;;;5007126;28;19917;-84
2022/07/13 04:21:52;;;;;;;;;;;;;;;;;;5023530;28;20492;-84
2022/07/13 04:24:17;;;;;;;;;;;;;;;;;;5021476;28;19913;-84
2022/07/13 04:26:42;;;;;;;;;;;;;;;;;;5026213;28;19913;-84
2022/07/13 04:29:07;;;;;;;;;;;;;;;;;;5023299;28;20444;-84
2022/07/13 04:31:33;;;;;;;;;;;;;;;;;;5023386;28;19913;-84
2022/07/13 04:33:58;;;;;;;;;;;;;;;;;;5025051;28;20284;-84
2022/07/13 04:36:23;;;;;;;;;;;;;;;;;;5023058;28;19960;-84
2022/07/13 04:38:48;;;;;;;;;;;;;;;;;;5023026;28;20287;-84
2022/07/13 04:41:13;;;;;;;;;;;;;;;;;;5022230;28;19921;-84
2022/07/13 04:43:38;;;;;;;;;;;;;;;;;;5025396;28;19914;-84
2022/07/13 04:46:04;;;;;;;;;;;;;;;;;;5017552;28;19918;-84
2022/07/13 04:48:29;;;;;;;;;;;;;;;;;;5021589;28;19921;-84
2022/07/13 04:50:55;;;;;;;;;;;;;;;;;;5021612;28;19917;-84
2022/07/13 04:53:20;;;;;;;;;;;;;;;;;;5020894;28;19912;-84
2022/07/13 04:55:45;;;;;;;;;;;;;;;;;;5021546;28;19929;-84
2022/07/13 04:58:10;;;;;;;;;;;;;;;;;;5024567;28;20362;-83
2022/07/13 05:00:35;;;;;;;;;;;;;;;;;;5024867;28;19917;-84
2022/07/13 05:03:01;;;;;;;;;;;;;;;;;;5024895;28;19921;-84
2022/07/13 05:05:28;;;;;;;;;;;;;;;;;;5010520;28;19920;-84
2022/07/13 05:07:54;;;;;;;;;;;;;;;;;;5029861;28;19924;-84
2022/07/13 05:10:19;;;;;;;;;;;;;;;;;;5025099;28;19913;-84
2022/07/13 05:12:44;;;;;;;;;;;;;;;;;;5028362;28;20366;-84
2022/07/13 05:15:09;;;;;;;;;;;;;;;;;;5029580;28;20408;-84
2022/07/13 05:17:34;;;;;;;;;;;;;;;;;;5026254;28;19970;-84
2022/07/13 05:19:59;;;;;;;;;;;;;;;;;;5027948;28;19952;-84
2022/07/13 05:22:25;;;;;;;;;;;;;;;;;;5026690;28;20008;-84
2022/07/13 05:24:50;;;;;;;;;;;;;;;;;;5026037;28;20004;-84
2022/07/13 05:27:15;;;;;;;;;;;;;;;;;;5017808;28;19917;-84
2022/07/13 05:29:40;;;;;;;;;;;;;;;;;;5025585;28;20279;-84
2022/07/13 05:32:06;;;;;;;;;;;;;;;;;;5008603;28;19920;-84
2022/07/13 05:34:31;;;;;;;;;;;;;;;;;;5023061;28;20260;-84
2022/07/13 05:36:57;;;;;;;;;;;;;;;;;;5029454;28;19917;-84
2022/07/13 05:39:22;;;;;;;;;;;;;;;;;;5022468;28;20416;-84
2022/07/13 05:41:47;;;;;;;;;;;;;;;;;;5028638;28;19913;-84
2022/07/13 05:44:13;;;;;;;;;;;;;;;;;;5028118;28;19979;-84
2022/07/13 05:46:38;;;;;;;;;;;;;;;;;;5026900;28;19939;-84
2022/07/13 05:49:03;;;;;;;;;;;;;;;;;;5025135;28;19920;-84
2022/07/13 05:51:28;;;;;;;;;;;;;;;;;;5027466;28;20405;-84
2022/07/13 05:53:53;;;;;;;;;;;;;;;;;;5029148;28;20223;-84
2022/07/13 05:56:19;;;;;;;;;;;;;;;;;;5028559;28;19923;-84
2022/07/13 05:58:44;;;;;;;;;;;;;;;;;;5025513;28;20379;-85
2022/07/13 06:01:09;;;;;;;;;;;;;;;;;;5025808;28;19971;-84
2022/07/13 06:03:34;;;;;;;;;;;;;;;;;;5029130;28;20296;-84
2022/07/13 06:05:59;;;;;;;;;;;;;;;;;;5023927;28;19998;-85
2022/07/13 06:08:24;;;;;;;;;;;;;;;;;;5023155;28;19988;-85
2022/07/13 06:10:50;;;;;;;;;;;;;;;;;;5023905;28;20071;-86
2022/07/13 06:13:15;;;;;;;;;;;;;;;;;;5023315;28;19970;-85
2022/07/13 06:15:40;;;;;;;;;;;;;;;;;;5024487;28;19916;-85
2022/07/13 06:18:05;;;;;;;;;;;;;;;;;;5024801;28;20056;-85
2022/07/13 06:20:30;;;;;;;;;;;;;;;;;;5024673;28;19940;-85
2022/07/13 06:23:11;;;;;;;;;;;;;;;;;;5025398;28;19917;-85
2022/07/13 06:25:36;;;;;;;;;;;;;;;;;;5023009;28;19916;-85
2022/07/13 06:28:01;;;;;;;;;;;;;;;;;;5023459;28;20004;-86
2022/07/13 06:30:26;;;;;;;;;;;;;;;;;;5023623;28;19913;-86
2022/07/13 06:32:51;;;;;;;;;;;;;;;;;;5022245;28;19913;-86
2022/07/13 06:35:17;;;;;;;;;;;;;;;;;;5021830;28;19928;-86
2022/07/13 06:37:42;;;;;;;;;;;;;;;;;;5024551;28;20008;-84
2022/07/13 06:40:07;;;;;;;;;;;;;;;;;;5026109;28;20004;-85
2022/07/13 06:42:32;;;;;;;;;;;;;;;;;;5024127;28;20055;-85
2022/07/13 06:44:57;;;;;;;;;;;;;;;;;;5022713;28;19921;-85
2022/07/13 06:47:22;;;;;;;;;;;;;;;;;;5023114;28;20002;-86
2022/07/13 06:49:48;;;;;;;;;;;;;;;;;;5025537;28;20390;-85
2022/07/13 06:52:13;;;;;;;;;;;;;;;;;;5023584;28;19920;-85
2022/07/13 06:54:38;;;;;;;;;;;;;;;;;;5027427;28;19913;-85
2022/07/13 06:57:03;;;;;;;;;;;;;;;;;;5025515;28;19975;-86
2022/07/13 06:59:28;;;;;;;;;;;;;;;;;;5025857;28;19932;-85
2022/07/13 07:01:54;;;;;;;;;;;;;;;;;;5024646;28;19921;-85
2022/07/13 07:04:19;;;;;;;;;;;;;;;;;;5022945;28;20384;-85
2022/07/13 07:06:45;;;;;;;;;;;;;;;;;;5022378;28;19914;-85
2022/07/13 07:09:10;;;;;;;;;;;;;;;;;;5025110;28;20189;-86
2022/07/13 07:11:36;;;;;;;;;;;;;;;;;;5020453;28;19971;-86
2022/07/13 07:14:01;;;;;;;;;;;;;;;;;;5024405;28;19928;-86
2022/07/13 07:16:26;;;;;;;;;;;;;;;;;;5023088;28;19916;-86
2022/07/13 07:18:51;;;;;;;;;;;;;;;;;;5024611;28;19917;-87
2022/07/13 07:21:17;;;;;;;;;;;;;;;;;;5024205;28;19951;-86
2022/07/13 07:23:42;;;;;;;;;;;;;;;;;;5024637;28;19996;-86
2022/07/13 07:26:07;;;;;;;;;;;;;;;;;;5023063;28;19913;-86
2022/07/13 07:28:32;;;;;;;;;;;;;;;;;;5023054;28;20408;-86
2022/07/13 07:30:57;;;;;;;;;;;;;;;;;;5019792;28;19917;-87
2022/07/13 07:33:22;;;;;;;;;;;;;;;;;;5023103;28;20035;-86
2022/07/13 07:35:48;;;;;;;;;;;;;;;;;;5024637;28;19917;-87
2022/07/13 07:38:13;;;;;;;;;;;;;;;;;;5018985;28;19921;-87
2022/07/13 07:40:39;;;;;;;;;;;;;;;;;;5023478;28;19917;-87
2022/07/13 07:43:04;;;;;;;;;;;;;;;;;;5022685;28;19919;-87
2022/07/13 07:45:29;;;;;;;;;;;;;;;;;;5024640;28;19921;-86
2022/07/13 07:47:54;;;;;;;;;;;;;;;;;;5024799;28;20485;-86
2022/07/13 07:50:19;;;;;;;;;;;;;;;;;;5025984;28;19917;-86
2022/07/13 07:52:44;;;;;;;;;;;;;;;;;;5023341;28;20358;-87
2022/07/13 07:55:10;;;;;;;;;;;;;;;;;;5022346;28;19919;-86
2022/07/13 07:57:35;;;;;;;;;;;;;;;;;;5021672;28;20334;-86
2022/07/13 08:00:00;;;;;;;;;;;;;;;;;;5023260;28;20047;-86
2022/07/13 08:02:25;;;;;;;;;;;;;;;;;;5009028;28;19936;-86
2022/07/13 08:04:50;;;;;;;;;;;;;;;;;;5025148;28;19917;-86
2022/07/13 08:07:15;;;;;;;;;;;;;;;;;;5019568;28;19941;-86
2022/07/13 08:09:41;;;;;;;;;;;;;;;;;;5022854;28;19914;-84
2022/07/13 08:12:06;;;;;;;;;;;;;;;;;;5022734;28;19996;-85
2022/07/13 08:14:31;;;;;;;;;;;;;;;;;;5023578;28;20378;-85
2022/07/13 08:16:56;;;;;;;;;;;;;;;;;;5023304;28;20010;-84
2022/07/13 08:19:23;;;;;;;;;;;;;;;;;;5025083;28;19917;-84
2022/07/13 08:21:48;;;;;;;;;;;;;;;;;;5023706;28;19928;-85
2022/07/13 08:24:14;;;;;;;;;;;;;;;;;;5024761;28;19913;-85
2022/07/13 08:26:39;;;;;;;;;;;;;;;;;;5023710;28;20337;-84
2022/07/13 08:29:05;;;;;;;;;;;;;;;;;;5019240;28;20441;-85
2022/07/13 08:31:30;;;;;;;;;;;;;;;;;;5021727;28;19924;-85
2022/07/13 08:39:23;;;;;;;;;;;;;;;;;;5019516;28;20008;-85
2022/07/13 08:41:48;;;;;;;;;;;;;;;;;;5021926;28;20027;-85
2022/07/13 08:44:13;;;;;;;;;;;;;;;;;;5006879;28;20424;-85
2022/07/13 08:46:38;;;;;;;;;;;;;;;;;;5025200;28;19924;-86
2022/07/13 08:49:03;;;;;;;;;;;;;;;;;;5024796;28;20282;-85
2022/07/13 08:51:28;;;;;;;;;;;;;;;;;;5028349;28;19917;-86
2022/07/13 08:53:54;;;;;;;;;;;;;;;;;;5024507;28;19917;-85
2022/07/13 08:56:19;;;;;;;;;;;;;;;;;;5023594;28;20345;-85
2022/07/13 08:58:44;;;;;;;;;;;;;;;;;;5024729;28;19941;-85
2022/07/13 09:01:09;;;;;;;;;;;;;;;;;;5026049;28;20322;-86
2022/07/13 09:03:34;;;;;;;;;;;;;;;;;;5022598;28;20290;-86
2022/07/13 09:06:00;;;;;;;;;;;;;;;;;;5024067;28;19928;-86
2022/07/13 09:08:25;;;;;;;;;;;;;;;;;;5026727;28;20160;-86
2022/07/13 09:10:51;;;;;;;;;;;;;;;;;;5026352;28;19920;-86
2022/07/13 09:13:16;;;;;;;;;;;;;;;;;;5024702;28;20003;-87
2022/07/13 09:15:41;;;;;;;;;;;;;;;;;;5020977;28;20353;-87
2022/07/13 09:18:06;;;;;;;;;;;;;;;;;;5026787;28;19920;-85
2022/07/13 09:20:31;;;;;;;;;;;;;;;;;;5025953;28;19933;-86
2022/07/13 09:22:57;;;;;;;;;;;;;;;;;;5026166;28;19924;-86
2022/07/13 09:25:22;;;;;;;;;;;;;;;;;;5024528;28;19933;-87
2022/07/13 09:27:47;;;;;;;;;;;;;;;;;;5006412;28;20513;-86
2022/07/13 09:30:12;;;;;;;;;;;;;;;;;;5023576;28;19913;-86
2022/07/13 09:32:41;;;;;;;;;;;;;;;;;;5021122;28;20363;-86
2022/07/13 09:35:06;;;;;;;;;;;;;;;;;;5023394;28;19968;-86
2022/07/13 09:37:31;;;;;;;;;;;;;;;;;;5028178;28;19913;-86
2022/07/13 09:39:59;;;;;;;;;;;;;;;;;;5021205;28;20027;-86
2022/07/13 09:42:24;;;;;;;;;;;;;;;;;;5024495;28;19917;-85
2022/07/13 09:47:33;;;;;;;;;;;;;;;;;;5021820;28;19924;-86
2022/07/13 09:49:58;;;;;;;;;;;;;;;;;;5020658;28;20341;-86
2022/07/13 09:52:23;;;;;;;;;;;;;;;;;;5024600;28;19917;-84
2022/07/13 09:54:51;;;;;;;;;;;;;;;;;;5023620;28;19917;-85
2022/07/13 09:57:17;;;;;;;;;;;;;;;;;;5024704;28;20374;-85
2022/07/13 09:59:42;;;;;;;;;;;;;;;;;;5024166;28;19929;-86
2022/07/13 10:02:07;;;;;;;;;;;;;;;;;;5022437;28;19919;-86
2022/07/13 10:04:32;;;;;;;;;;;;;;;;;;5022838;28;19913;-86
2022/07/13 10:06:58;;;;;;;;;;;;;;;;;;5022601;28;19909;-86
2022/07/13 10:09:27;;;;;;;;;;;;;;;;;;5024029;28;20330;-86
2022/07/13 10:11:52;;;;;;;;;;;;;;;;;;5020922;28;19913;-87
2022/07/13 10:14:18;;;;;;;;;;;;;;;;;;5003389;28;20440;-86
2022/07/13 10:16:43;;;;;;;;;;;;;;;;;;5023258;28;20008;-87
2022/07/13 10:19:10;;;;;;;;;;;;;;;;;;5024967;28;19924;-85
2022/07/13 10:21:35;;;;;;;;;;;;;;;;;;5020514;28;20051;-86
2022/07/13 10:24:00;;;;;;;;;;;;;;;;;;5020072;28;20378;-86
2022/07/13 10:26:26;;;;;;;;;;;;;;;;;;5005734;28;20196;-86
2022/07/13 10:28:51;;;;;;;;;;;;;;;;;;5027631;28;19917;-86
2022/07/13 10:31:16;;;;;;;;;;;;;;;;;;5026522;28;20036;-86
2022/07/13 10:33:41;;;;;;;;;;;;;;;;;;5008970;28;19924;-86
2022/07/13 10:36:07;;;;;;;;;;;;;;;;;;5021539;28;19928;-86
2022/07/13 10:38:32;;;;;;;;;;;;;;;;;;5024916;28;19921;-86
2022/07/13 10:40:57;;;;;;;;;;;;;;;;;;5022625;28;19929;-87
2022/07/13 10:43:23;;;;;;;;;;;;;;;;;;5025679;28;20299;-87
2022/07/13 10:45:48;;;;;;;;;;;;;;;;;;5020670;28;19917;-87
2022/07/13 10:48:13;;;;;;;;;;;;;;;;;;5023322;28;20051;-86
2022/07/13 10:50:39;;;;;;;;;;;;;;;;;;5017404;28;19944;-86
2022/07/13 10:53:04;;;;;;;;;;;;;;;;;;5014691;28;19917;-85
2022/07/13 10:55:29;;;;;;;;;;;;;;;;;;5019324;28;19928;-86
2022/07/13 10:57:55;;;;;;;;;;;;;;;;;;5023021;28;19924;-86
2022/07/13 11:00:23;;;;;;;;;;;;;;;;;;5021697;28;21602;-86
2022/07/13 11:02:49;;;;;;;;;;;;;;;;;;5023480;28;19917;-84
2022/07/13 11:05:15;;;;;;;;;;;;;;;;;;5019628;28;19929;-85
2022/07/13 11:07:40;;;;;;;;;;;;;;;;;;5003488;28;19925;-84
2022/07/13 11:10:05;;;;;;;;;;;;;;;;;;5023751;28;19917;-83
2022/07/13 11:12:31;;;;;;;;;;;;;;;;;;5001773;28;19921;-86
2022/07/13 11:14:56;;;;;;;;;;;;;;;;;;5021328;28;19921;-86
2022/07/13 11:17:23;;;;;;;;;;;;;;;;;;5020622;28;19964;-86
2022/07/13 11:19:48;;;;;;;;;;;;;;;;;;5023281;28;19971;-86
2022/07/13 11:22:13;;;;;;;;;;;;;;;;;;5022347;28;19917;-86
2022/07/13 11:27:22;;;;;;;;;;;;;;;;;;5019132;28;19967;-85
2022/07/13 11:29:48;;;;;;;;;;;;;;;;;;4999709;28;19953;-85
2022/07/13 11:32:13;;;;;;;;;;;;;;;;;;5020562;28;19913;-86
2022/07/13 11:34:38;;;;;;;;;;;;;;;;;;5019535;28;20210;-85
2022/07/13 11:37:03;;;;;;;;;;;;;;;;;;5020110;28;20342;-85
2022/07/13 11:39:28;;;;;;;;;;;;;;;;;;5021520;28;19925;-85
2022/07/13 11:41:53;;;;;;;;;;;;;;;;;;5022294;28;19971;-85
2022/07/13 11:44:19;;;;;;;;;;;;;;;;;;5019199;28;19921;-86
2022/07/13 11:46:44;;;;;;;;;;;;;;;;;;5018737;28;19970;-86
2022/07/13 11:49:10;;;;;;;;;;;;;;;;;;5021103;28;19917;-84
2022/07/13 11:51:35;;;;;;;;;;;;;;;;;;5021812;28;20279;-86
2022/07/13 11:54:00;;;;;;;;;;;;;;;;;;5019081;28;20484;-85
2022/07/13 11:56:25;;;;;;;;;;;;;;;;;;5017112;28;19923;-85
2022/07/13 11:58:50;;;;;;;;;;;;;;;;;;5018399;28;20286;-85
2022/07/13 12:01:16;;;;;;;;;;;;;;;;;;5017910;28;19913;-84
2022/07/13 12:03:41;;;;;;;;;;;;;;;;;;5017551;28;19927;-84
2022/07/13 12:06:07;;;;;;;;;;;;;;;;;;5018864;28;20216;-86
2022/07/13 12:08:33;;;;;;;;;;;;;;;;;;5018010;28;20367;-85
2022/07/13 12:10:58;;;;;;;;;;;;;;;;;;5019854;28;19917;-85
2022/07/13 12:13:24;;;;;;;;;;;;;;;;;;5019094;28;19928;-84
2022/07/13 12:15:49;;;;;;;;;;;;;;;;;;5019037;28;19921;-84
2022/07/13 12:18:14;;;;;;;;;;;;;;;;;;5021656;28;19917;-86
2022/07/13 12:20:39;;;;;;;;;;;;;;;;;;5020646;28;19975;-85
2022/07/13 12:23:04;;;;;;;;;;;;;;;;;;5017177;28;20295;-84
2022/07/13 12:25:31;;;;;;;;;;;;;;;;;;5023400;28;19928;-85
2022/07/13 12:27:59;;;;;;;;;;;;;;;;;;5016016;28;20200;-86
2022/07/13 12:30:24;;;;;;;;;;;;;;;;;;5017033;28;20417;-85
2022/07/13 12:32:49;;;;;;;;;;;;;;;;;;5018568;28;19989;-85
2022/07/13 12:35:14;;;;;;;;;;;;;;;;;;5019678;28;19972;-85
2022/07/13 12:37:39;;;;;;;;;;;;;;;;;;5018524;28;20012;-84
2022/07/13 12:40:04;;;;;;;;;;;;;;;;;;5016180;28;19935;-84
2022/07/13 12:42:30;;;;;;;;;;;;;;;;;;5019308;28;19925;-85
2022/07/13 12:44:56;;;;;;;;;;;;;;;;;;5017026;28;20386;-85
2022/07/13 12:47:24;;;;;;;;;;;;;;;;;;5018053;28;19921;-85
2022/07/13 12:49:49;;;;;;;;;;;;;;;;;;5020001;28;20426;-86
2022/07/13 12:52:14;;;;;;;;;;;;;;;;;;5020458;28;20011;-84
2022/07/13 12:54:39;;;;;;;;;;;;;;;;;;5002035;28;19926;-85
2022/07/13 12:57:05;;;;;;;;;;;;;;;;;;5016963;28;20425;-85
2022/07/13 12:59:30;;;;;;;;;;;;;;;;;;5015436;28;19932;-84
2022/07/13 13:01:55;;;;;;;;;;;;;;;;;;5021517;28;20330;-84
2022/07/13 13:04:20;;;;;;;;;;;;;;;;;;5018595;28;20382;-82
2022/07/13 13:06:45;;;;;;;;;;;;;;;;;;5017306;28;19916;-82
2022/07/13 13:09:11;;;;;;;;;;;;;;;;;;5019227;28;19958;-82
2022/07/13 13:11:36;;;;;;;;;;;;;;;;;;5015685;28;20011;-82
2022/07/13 13:14:01;;;;;;;;;;;;;;;;;;5017536;28;19943;-83
2022/07/13 13:16:26;;;;;;;;;;;;;;;;;;5020685;28;19921;-82
2022/07/13 13:18:51;;;;;;;;;;;;;;;;;;5019524;28;19917;-82
2022/07/13 13:21:16;;;;;;;;;;;;;;;;;;5018787;28;19924;-82
2022/07/13 13:23:42;;;;;;;;;;;;;;;;;;5017804;28;20170;-82
2022/07/13 13:26:07;;;;;;;;;;;;;;;;;;5016261;28;19921;-83
2022/07/13 13:31:16;;;;;;;;;;;;;;;;;;5021551;28;19924;-82
2022/07/13 13:33:42;;;;;;;;;;;;;;;;;;5021875;28;19921;-81
2022/07/13 13:36:07;;;;;;;;;;;;;;;;;;5019962;28;19932;-82
2022/07/13 13:38:32;;;;;;;;;;;;;;;;;;5024081;28;19928;-82
2022/07/13 13:40:57;;;;;;;;;;;;;;;;;;5023345;28;19920;-81
2022/07/13 13:43:23;;;;;;;;;;;;;;;;;;5023114;28;20421;-82
2022/07/13 13:45:48;;;;;;;;;;;;;;;;;;5020353;28;20040;-82
2022/07/13 13:48:13;;;;;;;;;;;;;;;;;;5023871;28;19921;-83
2022/07/13 13:50:38;;;;;;;;;;;;;;;;;;5024041;28;20015;-82
2022/07/13 13:53:03;;;;;;;;;;;;;;;;;;5023031;28;20379;-82
2022/07/13 13:55:28;;;;;;;;;;;;;;;;;;5003171;28;20027;-82
2022/07/13 13:57:54;;;;;;;;;;;;;;;;;;5026346;28;19913;-82
2022/07/13 14:00:19;;;;;;;;;;;;;;;;;;5023961;28;19917;-81
2022/07/13 14:02:44;;;;;;;;;;;;;;;;;;5021935;28;20063;-82
2022/07/13 14:05:09;;;;;;;;;;;;;;;;;;5001349;28;19921;-84
2022/07/13 14:07:35;;;;;;;;;;;;;;;;;;5018176;28;20383;-84
2022/07/13 14:10:00;;;;;;;;;;;;;;;;;;5017835;28;20008;-84
2022/07/13 14:12:25;;;;;;;;;;;;;;;;;;5019893;28;19917;-85
2022/07/13 14:14:51;;;;;;;;;;;;;;;;;;5024208;28;19928;-84
2022/07/13 14:17:16;;;;;;;;;;;;;;;;;;5002938;28;19917;-85
2022/07/13 14:19:46;;;;;;;;;;;;;;;;;;5014526;28;19925;-86
2022/07/13 14:22:11;;;;;;;;;;;;;;;;;;5022831;28;19921;-84
2022/07/13 14:24:36;;;;;;;;;;;;;;;;;;5022091;28;19913;-85
2022/07/13 14:27:02;;;;;;;;;;;;;;;;;;5003961;28;19975;-85
2022/07/13 14:29:28;;;;;;;;;;;;;;;;;;5020926;28;19921;-84
2022/07/13 14:31:57;;;;;;;;;;;;;;;;;;5024186;28;20292;-84
2022/07/13 14:34:22;;;;;;;;;;;;;;;;;;5023673;28;20079;-84
2022/07/13 14:36:47;;;;;;;;;;;;;;;;;;5023110;28;20371;-84
2022/07/13 14:39:12;;;;;;;;;;;;;;;;;;5022446;28;20063;-83
2022/07/13 14:41:38;;;;;;;;;;;;;;;;;;5027219;28;19936;-84
2022/07/13 14:44:04;;;;;;;;;;;;;;;;;;5022515;28;19921;-85
2022/07/13 14:46:29;;;;;;;;;;;;;;;;;;5027567;28;19978;-84
2022/07/13 14:48:54;;;;;;;;;;;;;;;;;;5027707;28;19919;-85
2022/07/13 14:51:21;;;;;;;;;;;;;;;;;;5025997;28;20193;-84
2022/07/13 14:53:48;;;;;;;;;;;;;;;;;;5020825;28;19956;-84
2022/07/13 14:56:14;;;;;;;;;;;;;;;;;;5026060;28;19921;-83
2022/07/13 14:58:39;;;;;;;;;;;;;;;;;;5024813;28;19920;-84
2022/07/13 15:01:04;;;;;;;;;;;;;;;;;;5027878;28;19945;-83
2022/07/13 15:03:30;;;;;;;;;;;;;;;;;;5027216;28;19924;-84
2022/07/13 15:05:55;;;;;;;;;;;;;;;;;;5029873;28;19920;-84
2022/07/13 15:08:20;;;;;;;;;;;;;;;;;;5024373;28;20552;-85
2022/07/13 15:10:45;;;;;;;;;;;;;;;;;;5027302;28;19950;-85
2022/07/13 15:13:11;;;;;;;;;;;;;;;;;;5024044;28;20437;-85
2022/07/13 15:15:36;;;;;;;;;;;;;;;;;;5024806;28;19917;-84
2022/07/13 15:18:01;;;;;;;;;;;;;;;;;;5025945;28;20429;-84
2022/07/13 15:20:26;;;;;;;;;;;;;;;;;;5024127;28;19925;-84
2022/07/13 15:22:52;;;;;;;;;;;;;;;;;;5023883;28;19913;-83
2022/07/13 15:25:17;;;;;;;;;;;;;;;;;;5024245;28;19917;-84
2022/07/13 15:27:42;;;;;;;;;;;;;;;;;;5027109;28;19913;-85
2022/07/13 15:30:08;;;;;;;;;;;;;;;;;;5024565;28;20015;-86
2022/07/13 15:32:33;;;;;;;;;;;;;;;;;;5024878;28;19913;-83
2022/07/13 15:34:59;;;;;;;;;;;;;;;;;;5012639;28;19917;-83
2022/07/13 15:37:24;;;;;;;;;;;;;;;;;;5021322;28;20344;-83
2022/07/13 15:39:49;;;;;;;;;;;;;;;;;;5024957;28;19932;-85
2022/07/13 15:42:15;;;;;;;;;;;;;;;;;;5023078;28;19955;-84
2022/07/13 15:44:40;;;;;;;;;;;;;;;;;;5020610;28;19921;-84
2022/07/13 15:47:05;;;;;;;;;;;;;;;;;;5024861;28;19913;-84
2022/07/13 15:49:30;;;;;;;;;;;;;;;;;;5022310;28;20560;-85
2022/07/13 15:51:55;;;;;;;;;;;;;;;;;;5025225;28;19913;-83
2022/07/13 15:54:22;;;;;;;;;;;;;;;;;;5024321;28;19917;-83
2022/07/13 15:56:48;;;;;;;;;;;;;;;;;;5029511;28;20387;-80
2022/07/13 15:59:13;;;;;;;;;;;;;;;;;;5021782;28;19921;-81
2022/07/13 16:01:38;;;;;;;;;;;;;;;;;;5027037;28;19992;-82
2022/07/13 16:04:03;;;;;;;;;;;;;;;;;;5023999;28;19914;-82
2022/07/13 16:06:29;;;;;;;;;;;;;;;;;;5028205;28;19963;-83
2022/07/13 16:08:54;;;;;;;;;;;;;;;;;;5023697;28;19936;-83
2022/07/13 16:11:19;;;;;;;;;;;;;;;;;;5023005;28;19936;-83
2022/07/13 16:13:44;;;;;;;;;;;;;;;;;;5025839;28;19952;-82
2022/07/13 16:16:13;;;;;;;;;;;;;;;;;;5023634;28;19944;-81
2022/07/13 16:18:38;;;;;;;;;;;;;;;;;;5016666;28;19973;-82
2022/07/13 16:21:03;;;;;;;;;;;;;;;;;;5012080;28;20000;-81
2022/07/13 16:23:29;;;;;;;;;;;;;;;;;;5022965;28;19944;-83
2022/07/13 16:25:54;;;;;;;;;;;;;;;;;;5026716;28;19920;-83
2022/07/13 16:28:19;;;;;;;;;;;;;;;;;;5024127;28;19944;-82
2022/07/13 16:30:44;;;;;;;;;;;;;;;;;;5024651;28;19971;-81
2022/07/13 16:33:09;;;;;;;;;;;;;;;;;;5016434;28;19913;-81
2022/07/13 16:35:34;;;;;;;;;;;;;;;;;;5027610;28;19917;-81
2022/07/13 16:38:00;;;;;;;;;;;;;;;;;;5024480;28;20012;-81
2022/07/13 16:40:25;;;;;;;;;;;;;;;;;;5023211;28;19928;-81
2022/07/13 16:42:50;;;;;;;;;;;;;;;;;;5024605;28;20016;-81
2022/07/13 16:45:15;;;;;;;;;;;;;;;;;;5026243;28;19921;-81